TAF Text Data
IDs:
Format:
Raw Decoded Include METAR

Data at: 0320 UTC 29 May 2022

KCSV 282326Z 2900/2924 31003KT P6SM SCT060
  FM290600 13003KT 4SM BR SKC
  FM291600 19006KT P6SM SKC